createdAt,value
2018-02-06T00:01:09.402Z,8.87
2018-02-06T00:03:35.370Z,8.67
2018-02-06T00:06:01.446Z,8.60
2018-02-06T00:08:27.385Z,8.80
2018-02-06T00:10:53.365Z,9.37
2018-02-06T00:13:19.345Z,9.10
2018-02-06T00:15:46.168Z,10.27
2018-02-06T00:18:13.749Z,9.60
2018-02-06T00:20:39.740Z,10.13
2018-02-06T00:23:05.713Z,9.37
2018-02-06T00:25:31.696Z,8.83
2018-02-06T00:27:57.676Z,8.30
2018-02-06T00:30:23.653Z,8.50
2018-02-06T00:32:50.352Z,9.57
2018-02-06T00:35:16.362Z,9.27
2018-02-06T00:37:42.300Z,8.77
2018-02-06T00:40:08.276Z,10.20
2018-02-06T00:42:34.280Z,10.03
2018-02-06T00:45:00.296Z,9.20
2018-02-06T00:47:26.268Z,10.50
2018-02-06T00:49:52.238Z,9.73
2018-02-06T00:52:18.208Z,11.80
2018-02-06T00:54:44.177Z,11.00
2018-02-06T00:57:10.166Z,10.10
2018-02-06T00:59:36.989Z,10.57
2018-02-06T01:02:03.916Z,10.30
2018-02-06T01:04:29.852Z,8.93
2018-02-06T01:06:55.829Z,10.13
2018-02-06T01:09:22.621Z,10.40
2018-02-06T01:11:48.597Z,9.97
2018-02-06T01:14:14.617Z,10.83
2018-02-06T01:16:40.638Z,9.63
2018-02-06T01:19:06.586Z,10.13
2018-02-06T01:21:32.552Z,10.20
2018-02-06T01:23:58.528Z,10.07
2018-02-06T01:26:24.513Z,10.37
2018-02-06T01:28:50.465Z,10.37
2018-02-06T01:31:16.457Z,8.67
2018-02-06T01:33:42.440Z,9.77
2018-02-06T01:36:08.441Z,10.30
2018-02-06T01:38:34.451Z,11.33
2018-02-06T01:41:00.524Z,11.80
2018-02-06T04:40:13.075Z,11.43
2018-02-06T04:42:39.071Z,11.40
2018-02-06T04:45:05.756Z,13.83
2018-02-06T04:47:31.695Z,11.57
2018-02-06T04:49:57.692Z,11.53
2018-02-06T04:52:24.375Z,11.40
2018-02-06T04:54:50.346Z,12.87
2018-02-06T04:57:16.343Z,12.10
2018-02-06T04:59:42.278Z,12.87
2018-02-06T05:02:08.247Z,11.20
2018-02-06T05:04:34.195Z,12.27
2018-02-06T05:07:00.139Z,11.93
2018-02-06T05:09:27.602Z,10.67
2018-02-06T05:11:53.535Z,12.77
2018-02-06T05:14:19.545Z,12.50
2018-02-06T05:16:45.520Z,13.53
2018-02-06T05:19:11.464Z,14.17
2018-02-06T05:21:37.436Z,13.43
2018-02-06T05:24:03.379Z,13.63
2018-02-06T05:26:29.372Z,20.83
2018-02-06T05:28:55.315Z,16.93
2018-02-06T05:31:22.070Z,17.47
2018-02-06T05:33:48.802Z,26.10
2018-02-06T05:36:14.991Z,19.20
2018-02-06T05:38:41.002Z,20.10
2018-02-06T05:41:07.683Z,19.73
2018-02-06T05:43:33.615Z,18.20
2018-02-06T05:45:59.600Z,17.90
2018-02-06T05:48:25.589Z,14.50
2018-02-06T05:50:51.574Z,14.90
2018-02-06T05:53:18.283Z,13.90
2018-02-06T05:55:44.296Z,14.07
2018-02-06T05:58:10.231Z,15.30
2018-02-06T06:00:36.214Z,15.43
2018-02-06T06:03:02.156Z,14.53
2018-02-06T06:05:28.129Z,16.53
2018-02-06T06:07:54.803Z,15.67
2018-02-06T06:10:20.776Z,14.00
2018-02-06T06:12:46.826Z,16.10
2018-02-06T06:15:12.840Z,16.57
2018-02-06T06:17:38.785Z,18.20
2018-02-06T06:20:04.807Z,17.23
2018-02-06T06:22:30.743Z,18.20
2018-02-06T06:24:56.696Z,18.03
2018-02-06T06:27:22.680Z,20.73
2018-02-06T06:29:48.628Z,18.50
2018-02-06T06:32:14.621Z,17.83
2018-02-06T06:34:40.586Z,21.33
2018-02-06T06:37:06.528Z,21.13
2018-02-06T06:39:32.487Z,53.03
2018-02-06T06:41:58.419Z,26.90
2018-02-06T06:44:24.434Z,17.70
2018-02-06T06:46:50.386Z,20.90
2018-02-06T06:49:16.492Z,19.23
2018-02-06T06:51:43.235Z,19.00
2018-02-06T06:54:09.908Z,19.00
2018-02-06T06:56:35.879Z,18.90
2018-02-06T06:59:01.860Z,21.47
2018-02-06T07:01:28.580Z,28.63
2018-02-06T07:03:54.556Z,32.97
2018-02-06T07:06:21.269Z,39.80
2018-02-06T07:08:47.296Z,21.40
2018-02-06T07:11:13.276Z,17.80
2018-02-06T07:13:39.963Z,17.23
2018-02-06T07:16:05.955Z,18.40
2018-02-06T07:18:32.629Z,18.83
2018-02-06T07:20:58.638Z,16.27
2018-02-06T07:23:24.575Z,16.07
2018-02-06T07:25:50.520Z,15.57
2018-02-06T07:28:17.375Z,15.77
2018-02-06T07:30:44.158Z,16.33
2018-02-06T07:33:10.143Z,14.30
2018-02-06T07:35:36.112Z,18.67
2018-02-06T07:38:02.796Z,16.80
2018-02-06T07:40:28.809Z,15.20
2018-02-06T07:42:54.779Z,18.20
2018-02-06T07:45:20.755Z,17.43
2018-02-06T07:47:46.821Z,15.90
2018-02-06T07:50:12.804Z,21.10
2018-02-06T07:52:38.825Z,21.13
2018-02-06T07:55:04.774Z,19.70
2018-02-06T07:57:30.763Z,21.97
2018-02-06T07:59:56.736Z,18.43
2018-02-06T08:02:22.672Z,17.73
2018-02-06T08:04:48.692Z,19.90
2018-02-06T08:07:14.695Z,17.77
2018-02-06T08:09:41.492Z,16.47
2018-02-06T08:12:07.485Z,16.70
2018-02-06T08:14:34.195Z,17.07
2018-02-06T08:17:00.130Z,17.17
2018-02-06T08:19:26.124Z,18.47
2018-02-06T08:21:52.149Z,19.47
2018-02-06T08:24:18.923Z,18.67
2018-02-06T08:26:45.087Z,17.23
2018-02-06T08:29:11.107Z,16.60
2018-02-06T08:31:37.067Z,16.77
2018-02-06T08:34:03.024Z,17.20
2018-02-06T08:36:29.021Z,19.67
2018-02-06T08:38:54.964Z,19.50
2018-02-06T08:41:20.979Z,18.40
2018-02-06T08:43:46.969Z,18.00
2018-02-06T08:46:12.920Z,19.37
2018-02-06T08:48:39.655Z,17.90
2018-02-06T08:51:05.631Z,21.53
2018-02-06T08:53:32.350Z,19.57
2018-02-06T08:55:58.345Z,19.13
2018-02-06T08:58:24.311Z,21.20
2018-02-06T09:00:50.303Z,20.40
2018-02-06T09:03:16.292Z,21.60
2018-02-06T09:05:42.223Z,20.13
2018-02-06T09:08:08.244Z,18.70
2018-02-06T09:10:34.239Z,18.97
2018-02-06T09:13:00.171Z,18.07
2018-02-06T09:15:26.117Z,20.70
2018-02-06T09:17:52.133Z,18.07
2018-02-06T09:20:18.916Z,19.07
2018-02-06T09:22:44.994Z,19.97
2018-02-06T09:25:10.923Z,18.70
2018-02-06T09:27:36.897Z,18.90
2018-02-06T09:30:03.660Z,17.80
2018-02-06T09:32:29.604Z,19.30
2018-02-06T09:34:55.573Z,17.50
2018-02-06T09:37:21.564Z,18.40
2018-02-06T09:39:48.289Z,18.47
2018-02-06T09:42:14.278Z,17.27
2018-02-06T09:44:40.300Z,16.90
2018-02-06T09:47:06.280Z,16.30
2018-02-06T09:49:32.300Z,17.17
2018-02-06T09:51:58.323Z,16.50
2018-02-06T09:54:24.267Z,16.50
2018-02-06T09:56:50.216Z,16.03
2018-02-06T09:59:16.224Z,14.90
2018-02-06T10:01:42.164Z,16.40
2018-02-06T10:04:08.163Z,17.53
2018-02-06T10:06:34.844Z,15.70
2018-02-06T10:09:00.807Z,15.40
2018-02-06T10:11:26.742Z,15.20
2018-02-06T10:13:52.739Z,18.37
2018-02-06T10:16:18.719Z,15.80
2018-02-06T10:18:44.700Z,14.40
2018-02-06T10:21:11.379Z,15.43
2018-02-06T10:23:37.343Z,16.40
2018-02-06T10:26:03.367Z,16.13
2018-02-06T10:28:29.299Z,14.90
2018-02-06T10:30:55.263Z,14.10
2018-02-06T10:33:21.195Z,14.30
2018-02-06T10:35:47.231Z,14.30
2018-02-06T10:38:13.171Z,14.60
2018-02-06T10:40:39.152Z,13.43
2018-02-06T10:43:05.087Z,12.90
2018-02-06T10:45:31.020Z,12.43
2018-02-06T10:47:57.063Z,12.90
2018-02-06T10:50:23.004Z,11.27
2018-02-06T10:52:48.955Z,13.70
2018-02-06T10:55:15.007Z,14.50
2018-02-06T10:57:40.950Z,13.90
2018-02-06T11:00:06.925Z,15.20
2018-02-06T11:02:33.651Z,14.73
2018-02-06T11:05:00.329Z,14.70
2018-02-06T11:07:27.047Z,14.13
2018-02-06T11:09:53.015Z,14.73
2018-02-06T11:12:19.737Z,15.37
2018-02-06T11:14:47.230Z,17.70
2018-02-06T11:17:13.963Z,16.37
2018-02-06T11:19:39.891Z,16.67
2018-02-06T11:22:05.859Z,15.10
2018-02-06T11:24:32.527Z,17.30
2018-02-06T11:26:58.499Z,17.87
2018-02-06T11:29:24.471Z,17.30
2018-02-06T11:31:50.430Z,17.73
2018-02-06T11:34:17.173Z,18.60
2018-02-06T11:36:43.860Z,17.80
2018-02-06T11:39:09.794Z,18.00
2018-02-06T11:41:35.771Z,17.40
2018-02-06T11:44:01.760Z,19.40
2018-02-06T11:46:27.692Z,19.20
2018-02-06T11:48:53.626Z,17.70
2018-02-06T11:51:19.601Z,16.83
2018-02-06T11:53:45.591Z,18.50
2018-02-06T11:56:11.583Z,19.23
2018-02-06T11:58:37.519Z,17.50
2018-02-06T12:01:03.483Z,18.13
2018-02-06T12:03:30.223Z,19.20
2018-02-06T12:05:56.948Z,18.73
2018-02-06T12:08:22.915Z,18.33
2018-02-06T12:10:48.871Z,20.10
2018-02-06T12:13:15.605Z,19.40
2018-02-06T12:15:42.331Z,18.77
2018-02-06T12:18:08.271Z,19.00
2018-02-06T12:20:34.267Z,20.23
2018-02-06T12:23:00.228Z,19.20
2018-02-06T12:25:26.191Z,19.87
2018-02-06T12:27:52.123Z,19.53
2018-02-06T12:30:18.119Z,17.93
2018-02-06T12:32:44.103Z,21.10
2018-02-06T12:35:10.043Z,19.60
2018-02-06T12:37:36.035Z,18.77
2018-02-06T12:40:02.836Z,19.00
2018-02-06T12:42:29.519Z,19.20
2018-02-06T12:44:55.481Z,18.60
2018-02-06T12:47:21.472Z,18.47
2018-02-06T12:49:48.207Z,17.33
2018-02-06T12:52:14.966Z,18.40
2018-02-06T12:54:41.685Z,19.37
2018-02-06T12:57:07.619Z,19.87
2018-02-06T12:59:33.588Z,20.43
2018-02-06T13:02:00.272Z,19.73
2018-02-06T13:04:26.246Z,19.60
2018-02-06T13:06:52.174Z,19.50
2018-02-06T13:09:18.135Z,19.13
2018-02-06T13:11:44.155Z,19.53
2018-02-06T13:14:10.149Z,20.97
2018-02-06T13:16:36.084Z,20.50
2018-02-06T13:19:02.019Z,20.03
2018-02-06T13:21:27.968Z,17.77
2018-02-06T13:23:53.895Z,20.20
2018-02-06T13:26:19.939Z,19.47
2018-02-06T13:28:45.910Z,18.30
2018-02-06T13:31:11.860Z,20.83
2018-02-06T13:33:37.823Z,20.50
2018-02-06T13:36:04.543Z,19.17
2018-02-06T13:38:30.503Z,19.47
2018-02-06T13:40:57.179Z,20.70
2018-02-06T13:43:23.168Z,19.90
2018-02-06T13:45:49.175Z,19.10
2018-02-06T13:48:15.164Z,20.50
2018-02-06T13:50:41.876Z,21.03
2018-02-06T13:53:07.824Z,19.60
2018-02-06T13:55:33.793Z,19.83
2018-02-06T13:58:00.486Z,21.60
2018-02-06T14:00:26.463Z,20.43
2018-02-06T14:02:52.428Z,17.57
2018-02-06T14:05:18.431Z,18.00
2018-02-06T14:07:44.392Z,18.60
2018-02-06T14:10:10.332Z,18.27
2018-02-06T14:12:36.476Z,19.70
2018-02-06T14:15:02.456Z,19.10
2018-02-06T14:17:28.468Z,18.50
2018-02-06T14:19:54.443Z,19.23
2018-02-06T14:22:20.420Z,19.40
2018-02-06T14:24:46.395Z,17.60
2018-02-06T14:27:12.371Z,15.47
2018-02-06T14:29:39.071Z,15.53
2018-02-06T14:32:05.071Z,16.37
2018-02-06T14:34:31.023Z,15.40
2018-02-06T14:36:56.987Z,16.73
2018-02-06T14:39:22.962Z,16.33
2018-02-06T14:41:49.676Z,16.40
2018-02-06T14:44:15.640Z,16.27
2018-02-06T14:46:42.332Z,15.10
2018-02-06T14:49:08.336Z,15.70
2018-02-06T14:51:34.287Z,16.37
2018-02-06T14:54:00.292Z,15.77
2018-02-06T14:56:26.962Z,17.37
2018-02-06T14:58:53.635Z,16.83
2018-02-06T15:01:19.619Z,18.10
2018-02-06T15:03:45.565Z,15.47
2018-02-06T15:06:11.547Z,17.97
2018-02-06T15:08:37.489Z,17.23
2018-02-06T15:11:03.460Z,18.10
2018-02-06T15:13:29.424Z,15.37
2018-02-06T15:15:56.141Z,16.60
2018-02-06T15:18:22.144Z,20.03
2018-02-06T15:20:48.120Z,18.70
2018-02-06T15:23:14.051Z,18.63
2018-02-06T15:25:40.015Z,19.97
2018-02-06T15:28:05.980Z,19.60
2018-02-06T15:30:31.999Z,20.33
2018-02-06T15:32:58.707Z,20.97
2018-02-06T15:35:24.639Z,18.67
2018-02-06T15:37:50.612Z,19.20
2018-02-06T15:40:16.559Z,20.70
2018-02-06T15:42:43.292Z,20.13
2018-02-06T15:45:09.303Z,21.00
2018-02-06T15:47:35.241Z,20.87
2018-02-06T15:50:01.316Z,21.00
2018-02-06T15:52:28.033Z,20.07
2018-02-06T15:54:54.004Z,20.70
2018-02-06T15:57:20.692Z,22.47
2018-02-06T15:59:46.763Z,19.40
2018-02-06T16:02:12.763Z,21.10
2018-02-06T16:04:38.696Z,21.90
2018-02-06T16:07:04.651Z,21.60
2018-02-06T16:09:30.641Z,22.23
2018-02-06T16:11:57.348Z,20.90
2018-02-06T16:14:23.336Z,21.27
2018-02-06T16:16:50.015Z,22.33
2018-02-06T16:19:15.995Z,22.20
2018-02-06T16:21:41.985Z,23.97
2018-02-06T16:24:07.932Z,21.30
2018-02-06T16:26:33.868Z,21.07
2018-02-06T16:28:59.868Z,20.97
2018-02-06T16:31:26.572Z,20.47
2018-02-06T16:33:52.512Z,22.80
2018-02-06T16:36:18.479Z,22.00
2018-02-06T16:38:44.488Z,22.33
2018-02-06T16:41:10.419Z,22.10
2018-02-06T16:43:36.416Z,22.00
2018-02-06T16:46:03.087Z,19.00
2018-02-06T16:48:29.052Z,21.80
2018-02-06T16:50:55.046Z,25.83
2018-02-06T16:53:21.048Z,28.67
2018-02-06T16:55:47.034Z,26.30
2018-02-06T16:58:13.079Z,24.73
2018-02-06T17:00:39.011Z,24.57
2018-02-06T17:03:04.979Z,25.17
2018-02-06T17:05:30.957Z,24.10
2018-02-06T17:07:57.663Z,26.70
2018-02-06T17:10:23.600Z,25.63
2018-02-06T17:12:49.573Z,24.80
2018-02-06T17:15:16.311Z,25.73
2018-02-06T17:17:42.401Z,27.50
2018-02-06T17:20:08.339Z,26.13
2018-02-06T17:22:34.316Z,26.00
2018-02-06T17:25:00.296Z,25.47
2018-02-06T17:27:26.244Z,26.30
2018-02-06T17:29:52.959Z,22.73
2018-02-06T17:32:19.643Z,26.93
2018-02-06T17:34:45.655Z,26.50
2018-02-06T17:37:12.404Z,26.27
2018-02-06T17:39:38.339Z,24.47
2018-02-06T17:42:04.279Z,24.20
2018-02-06T17:44:30.275Z,22.93
2018-02-06T17:46:56.295Z,22.27
2018-02-06T17:49:22.240Z,23.63
2018-02-06T17:51:48.171Z,22.90
2018-02-06T17:54:14.159Z,20.77
2018-02-06T17:56:40.918Z,21.33
2018-02-06T17:59:07.627Z,25.43
2018-02-06T18:01:33.608Z,22.63
2018-02-06T18:04:00.318Z,21.60
2018-02-06T18:06:26.524Z,20.77
2018-02-06T18:08:52.461Z,19.37
2018-02-06T18:11:18.406Z,20.27
2018-02-06T18:13:44.512Z,20.67
2018-02-06T18:16:10.475Z,20.27
2018-02-06T18:18:36.463Z,19.47
2018-02-06T18:21:02.519Z,20.63
2018-02-06T18:23:29.273Z,21.57
2018-02-06T18:25:55.975Z,21.43
2018-02-06T18:28:21.912Z,20.10
2018-02-06T18:30:47.928Z,20.10
2018-02-06T18:33:13.971Z,20.27
2018-02-06T18:35:39.902Z,20.10
2018-02-06T18:38:05.836Z,19.73
2018-02-06T18:40:31.871Z,21.30
2018-02-06T18:42:58.595Z,21.87
2018-02-06T18:45:24.571Z,20.37
2018-02-06T18:47:50.537Z,20.40
2018-02-06T18:50:16.532Z,19.80
2018-02-06T18:52:42.500Z,20.50
2018-02-06T18:55:08.484Z,20.20
2018-02-06T18:57:35.215Z,21.10
2018-02-06T19:00:01.172Z,22.30
2018-02-06T19:02:27.880Z,21.53
2018-02-06T19:04:53.911Z,20.73
2018-02-06T19:07:19.900Z,26.50
2018-02-06T19:09:46.672Z,22.50
2018-02-06T19:12:12.697Z,20.20
2018-02-06T19:14:38.640Z,20.83
2018-02-06T19:17:04.675Z,20.20
2018-02-06T19:19:30.660Z,21.43
2018-02-06T19:21:56.675Z,21.80
2018-02-06T19:24:23.338Z,20.57
2018-02-06T19:26:49.316Z,23.20
2018-02-06T19:29:16.010Z,26.33
2018-02-06T19:31:41.971Z,23.33
2018-02-06T19:34:09.539Z,22.23
2018-02-06T19:36:35.479Z,23.30
2018-02-06T19:39:01.421Z,22.67
2018-02-06T19:41:27.423Z,23.40
2018-02-06T19:43:53.424Z,21.40
2018-02-06T19:46:20.167Z,20.90
2018-02-06T19:48:46.976Z,20.30
2018-02-06T19:51:13.023Z,20.33
2018-02-06T19:53:39.043Z,22.07
2018-02-06T19:56:05.037Z,20.60
2018-02-06T19:58:31.838Z,21.87
2018-02-06T20:00:57.788Z,20.53
2018-02-06T20:03:23.727Z,20.10
2018-02-06T20:05:49.704Z,19.07
2018-02-06T20:08:16.458Z,17.57
2018-02-06T20:10:43.184Z,18.53
2018-02-06T20:13:09.291Z,17.90
2018-02-06T20:15:35.224Z,18.07
2018-02-06T20:18:01.247Z,16.90
2018-02-06T20:20:27.252Z,17.73
2018-02-06T20:22:54.015Z,18.30
2018-02-06T20:25:19.984Z,17.87
2018-02-06T20:27:45.967Z,17.47
2018-02-06T20:30:12.756Z,19.63
2018-02-06T20:32:38.696Z,18.83
2018-02-06T20:35:04.635Z,19.77
2018-02-06T20:37:30.599Z,19.77
2018-02-06T20:39:56.596Z,17.87
2018-02-06T20:42:23.339Z,16.77
2018-02-06T20:44:50.107Z,18.23
2018-02-06T20:47:16.779Z,16.43
2018-02-06T20:49:42.798Z,17.30
2018-02-06T20:52:08.745Z,18.67
2018-02-06T20:54:34.771Z,17.30
2018-02-06T20:57:00.707Z,18.07
2018-02-06T20:59:26.677Z,21.70
2018-02-06T21:01:52.647Z,20.30
2018-02-06T21:04:18.639Z,19.33
2018-02-06T21:06:44.696Z,17.50
2018-02-06T21:09:10.694Z,19.37
2018-02-06T21:11:36.632Z,16.80
2018-02-06T21:14:02.633Z,17.80
2018-02-06T21:16:28.676Z,17.53
2018-02-06T21:18:55.360Z,15.90
2018-02-06T21:21:21.384Z,17.30
2018-02-06T21:23:47.372Z,18.60
2018-02-06T21:26:13.377Z,20.20
2018-02-06T21:28:39.371Z,20.47
2018-02-06T21:31:05.339Z,20.83
2018-02-06T21:33:31.317Z,23.70
2018-02-06T21:35:57.324Z,19.40
2018-02-06T21:38:23.272Z,19.35
2018-02-06T21:40:49.276Z,18.77
2018-02-06T21:43:15.290Z,20.77
2018-02-06T21:45:42.048Z,19.10
2018-02-06T21:48:08.752Z,20.40
2018-02-06T21:50:34.746Z,18.30
2018-02-06T21:53:01.497Z,17.97
2018-02-06T21:55:28.192Z,19.80
2018-02-06T21:57:54.159Z,17.30
2018-02-06T22:00:20.231Z,20.97
2018-02-06T22:02:46.963Z,20.23
2018-02-06T22:05:12.977Z,18.53
2018-02-06T22:07:38.940Z,18.27
2018-02-06T22:10:05.675Z,17.40
2018-02-06T22:12:31.658Z,18.90
2018-02-06T22:14:57.637Z,19.00
2018-02-06T22:17:23.599Z,18.80
2018-02-06T22:19:50.311Z,17.77
2018-02-06T22:22:16.320Z,18.93
2018-02-06T22:24:42.289Z,19.63
2018-02-06T22:27:08.269Z,18.10
2018-02-06T22:29:34.991Z,18.17
2018-02-06T22:32:01.677Z,19.33
2018-02-06T22:34:28.431Z,19.30
2018-02-06T22:36:55.111Z,17.57
2018-02-06T22:39:21.045Z,18.27
2018-02-06T22:41:47.016Z,17.17
2018-02-06T22:44:13.002Z,16.20
2018-02-06T22:46:39.030Z,18.60
2018-02-06T22:49:04.981Z,19.10
2018-02-06T22:51:30.968Z,17.60
2018-02-06T22:53:56.925Z,18.63
2018-02-06T22:56:23.631Z,17.40
2018-02-06T22:58:49.590Z,18.07
2018-02-06T23:01:15.598Z,18.57
2018-02-06T23:03:41.549Z,16.93
2018-02-06T23:06:07.636Z,17.60
2018-02-06T23:08:33.575Z,17.70
2018-02-06T23:10:59.544Z,16.30
2018-02-06T23:13:25.528Z,16.90
2018-02-06T23:15:52.214Z,16.03
2018-02-06T23:18:18.163Z,16.40
2018-02-06T23:20:44.124Z,17.20
2018-02-06T23:23:10.119Z,16.67
2018-02-06T23:25:36.088Z,18.53
2018-02-06T23:28:02.098Z,18.67
2018-02-06T23:30:28.057Z,18.23
2018-02-06T23:32:54.031Z,18.00
2018-02-06T23:35:20.703Z,18.33
2018-02-06T23:37:46.668Z,17.20
2018-02-06T23:40:12.620Z,18.73
2018-02-06T23:42:38.595Z,17.13
2018-02-06T23:45:05.275Z,17.30
2018-02-06T23:47:31.255Z,18.80
2018-02-06T23:49:57.190Z,16.03
2018-02-06T23:52:23.119Z,16.80
2018-02-06T23:54:49.116Z,15.67
2018-02-06T23:57:15.059Z,17.40
2018-02-06T23:59:40.995Z,15.13
